createdAt,value
2018-05-23T00:00:46.239Z,73.87
2018-05-23T00:01:49.566Z,73.87
2018-05-23T00:02:52.878Z,73.92
2018-05-23T00:03:56.202Z,74.00
2018-05-23T00:04:59.547Z,74.00
2018-05-23T00:06:02.864Z,74.01
2018-05-23T00:07:06.216Z,73.98
2018-05-23T00:08:09.558Z,74.00
2018-05-23T00:09:12.876Z,74.02
2018-05-23T00:10:16.227Z,73.96
2018-05-23T00:11:19.540Z,73.95
2018-05-23T00:12:22.862Z,73.96
2018-05-23T00:13:26.180Z,73.96
2018-05-23T00:14:29.506Z,74.00
2018-05-23T00:15:32.874Z,74.00
2018-05-23T00:16:36.202Z,74.01
2018-05-23T00:17:39.827Z,73.99
2018-05-23T00:18:43.153Z,74.01
2018-05-23T00:19:46.475Z,74.10
2018-05-23T00:20:49.810Z,74.18
2018-05-23T00:21:53.152Z,74.25
2018-05-23T00:22:56.785Z,74.26
2018-05-23T00:24:00.091Z,74.25
2018-05-23T00:25:03.484Z,74.21
2018-05-23T00:26:06.835Z,74.29
2018-05-23T00:27:10.163Z,74.30
2018-05-23T00:28:13.493Z,74.29
2018-05-23T00:29:16.828Z,74.26
2018-05-23T00:30:20.139Z,74.22
2018-05-23T00:31:23.481Z,74.23
2018-05-23T00:32:26.801Z,74.24
2018-05-23T00:33:30.134Z,74.21
2018-05-23T00:34:33.464Z,74.31
2018-05-23T00:35:36.787Z,74.36
2018-05-23T00:36:40.137Z,74.38
2018-05-23T00:37:43.460Z,74.40
2018-05-23T00:38:46.797Z,74.37
2018-05-23T00:39:50.151Z,74.36
2018-05-23T00:40:53.466Z,74.40
2018-05-23T00:41:56.805Z,74.42
2018-05-23T00:43:00.134Z,74.47
2018-05-23T00:44:03.442Z,74.51
2018-05-23T00:45:06.766Z,74.52
2018-05-23T00:46:10.121Z,74.55
2018-05-23T00:47:13.463Z,74.62
2018-05-23T00:48:16.780Z,74.68
2018-05-23T00:49:20.159Z,74.69
2018-05-23T00:50:23.516Z,74.72
2018-05-23T00:51:26.802Z,74.67
2018-05-23T00:52:30.142Z,74.66
2018-05-23T00:53:33.471Z,74.69
2018-05-23T00:54:36.798Z,74.78
2018-05-23T00:55:40.127Z,74.87
2018-05-23T00:56:43.437Z,74.92
2018-05-23T00:57:46.795Z,74.92
2018-05-23T00:58:50.489Z,74.96
2018-05-23T00:59:53.787Z,74.98
2018-05-23T01:00:57.113Z,75.03
2018-05-23T01:02:00.452Z,75.07
2018-05-23T01:03:03.784Z,75.13
2018-05-23T01:04:07.114Z,75.20
2018-05-23T01:05:10.427Z,75.22
2018-05-23T01:06:13.746Z,75.23
2018-05-23T01:07:17.065Z,75.26
2018-05-23T01:08:20.507Z,75.32
2018-05-23T01:09:23.798Z,75.38
2018-05-23T01:10:27.129Z,75.42
2018-05-23T01:11:30.446Z,75.48
2018-05-23T01:12:33.775Z,75.44
2018-05-23T01:13:37.106Z,75.38
2018-05-23T01:14:40.471Z,75.39
2018-05-23T01:15:43.813Z,75.36
2018-05-23T01:16:47.132Z,75.28
2018-05-23T01:17:50.469Z,75.33
2018-05-23T01:18:53.815Z,75.40
2018-05-23T01:19:57.132Z,75.49
2018-05-23T01:21:00.455Z,75.51
2018-05-23T01:22:03.808Z,75.53
2018-05-23T01:23:07.461Z,75.55
2018-05-23T01:24:10.805Z,75.60
2018-05-23T01:25:14.127Z,75.63
2018-05-23T01:26:17.453Z,75.70
2018-05-23T01:27:20.782Z,75.70
2018-05-23T01:28:24.118Z,75.71
2018-05-23T01:29:27.459Z,75.71
2018-05-23T01:30:31.535Z,75.70
2018-05-23T01:31:34.855Z,75.72
2018-05-23T01:32:38.331Z,75.68
2018-05-23T01:33:41.666Z,75.65
2018-05-23T01:34:45.002Z,75.62
2018-05-23T01:35:48.340Z,75.61
2018-05-23T01:36:51.658Z,75.64
2018-05-23T01:37:54.980Z,75.58
2018-05-23T01:38:58.597Z,75.61
2018-05-23T01:40:01.927Z,75.52
2018-05-23T01:41:05.266Z,75.45
2018-05-23T01:42:08.599Z,75.37
2018-05-23T01:43:11.912Z,75.29
2018-05-23T01:44:15.243Z,75.23
2018-05-23T01:45:18.581Z,75.18
2018-05-23T01:46:21.907Z,75.16
2018-05-23T01:47:25.209Z,75.13
2018-05-23T01:48:40.233Z,75.07
2018-05-23T01:49:43.543Z,75.16
2018-05-23T01:50:46.890Z,75.16
2018-05-23T01:51:50.217Z,75.16
2018-05-23T01:52:53.534Z,75.15
2018-05-23T01:53:56.900Z,75.15
2018-05-23T01:55:00.255Z,75.19
2018-05-23T01:56:03.619Z,75.23
2018-05-23T01:57:06.928Z,75.29
2018-05-23T01:58:10.265Z,75.33
2018-05-23T01:59:13.600Z,75.38
2018-05-23T02:00:16.934Z,75.45
2018-05-23T02:01:20.294Z,75.52
2018-05-23T02:02:23.653Z,75.59
2018-05-23T02:03:26.987Z,75.65
2018-05-23T02:04:30.311Z,75.64
2018-05-23T02:05:33.634Z,75.66
2018-05-23T02:06:37.004Z,75.67
2018-05-23T02:07:40.342Z,75.67
2018-05-23T02:08:43.671Z,75.69
2018-05-23T02:09:46.991Z,75.70
2018-05-23T02:10:50.322Z,75.73
2018-05-23T02:11:53.662Z,75.74
2018-05-23T02:12:56.988Z,75.71
2018-05-23T02:14:00.379Z,75.72
2018-05-23T02:15:03.701Z,75.70
2018-05-23T02:16:07.033Z,75.73
2018-05-23T02:17:10.368Z,75.75
2018-05-23T02:18:13.696Z,75.71
2018-05-23T02:19:17.022Z,75.68
2018-05-23T02:20:20.361Z,75.67
2018-05-23T02:21:23.693Z,75.65
2018-05-23T02:22:27.059Z,75.63
2018-05-23T02:23:30.556Z,75.60
2018-05-23T02:24:33.883Z,75.62
2018-05-23T02:25:37.226Z,75.64
2018-05-23T02:26:40.547Z,75.65
2018-05-23T02:27:43.920Z,75.66
2018-05-23T02:28:47.231Z,75.69
2018-05-23T02:29:50.550Z,75.72
2018-05-23T02:30:53.873Z,75.72
2018-05-23T02:31:57.205Z,75.72
2018-05-23T02:33:00.558Z,75.75
2018-05-23T02:34:03.935Z,75.75
2018-05-23T02:35:07.247Z,75.74
2018-05-23T02:36:10.599Z,75.77
2018-05-23T02:37:13.918Z,75.75
2018-05-23T02:38:17.265Z,75.74
2018-05-23T02:39:20.591Z,75.73
2018-05-23T02:40:23.916Z,75.73
2018-05-23T02:41:27.249Z,75.75
2018-05-23T02:42:30.563Z,75.75
2018-05-23T02:43:33.916Z,75.78
2018-05-23T02:44:37.236Z,75.77
2018-05-23T02:45:40.592Z,75.79
2018-05-23T02:46:43.939Z,75.84
2018-05-23T02:47:47.258Z,75.85
2018-05-23T02:48:50.614Z,75.91
2018-05-23T02:49:53.943Z,75.95
2018-05-23T02:50:57.267Z,75.96
2018-05-23T02:52:00.601Z,75.98
2018-05-23T02:53:03.939Z,76.00
2018-05-23T02:54:07.295Z,76.07
2018-05-23T02:55:10.630Z,76.11
2018-05-23T02:56:13.960Z,76.16
2018-05-23T02:57:17.279Z,76.15
2018-05-23T02:58:20.607Z,76.16
2018-05-23T02:59:23.971Z,76.16
2018-05-23T03:00:27.307Z,76.17
2018-05-23T03:01:30.648Z,76.22
2018-05-23T03:02:33.967Z,76.23
2018-05-23T03:03:37.320Z,76.26
2018-05-23T03:04:40.651Z,76.27
2018-05-23T03:05:43.978Z,76.27
2018-05-23T03:06:47.317Z,76.25
2018-05-23T03:07:50.641Z,76.24
2018-05-23T03:08:53.954Z,76.24
2018-05-23T03:09:57.330Z,76.25
2018-05-23T03:11:00.655Z,76.28
2018-05-23T03:12:03.997Z,76.33
2018-05-23T03:13:07.296Z,76.40
2018-05-23T03:14:10.651Z,76.43
2018-05-23T03:15:13.986Z,76.43
2018-05-23T03:16:17.309Z,76.42
2018-05-23T03:17:20.635Z,76.46
2018-05-23T03:18:23.963Z,76.48
2018-05-23T03:19:27.283Z,76.54
2018-05-23T03:20:30.671Z,76.56
2018-05-23T03:21:34.047Z,76.57
2018-05-23T03:22:37.390Z,76.56
2018-05-23T03:23:41.118Z,76.57
2018-05-23T03:24:44.538Z,76.59
2018-05-23T03:25:47.895Z,76.60
2018-05-23T03:26:51.231Z,76.61
2018-05-23T03:27:54.571Z,76.59
2018-05-23T03:28:57.910Z,76.57
2018-05-23T03:30:01.244Z,76.56
2018-05-23T03:31:04.588Z,76.58
2018-05-23T03:32:07.974Z,76.61
2018-05-23T03:33:11.308Z,76.60
2018-05-23T03:34:14.634Z,76.59
2018-05-23T03:35:17.976Z,76.58
2018-05-23T03:36:21.307Z,76.60
2018-05-23T03:37:24.645Z,76.61
2018-05-23T03:38:28.431Z,76.63
2018-05-23T03:39:31.769Z,76.69
2018-05-23T03:40:35.106Z,76.69
2018-05-23T03:41:38.541Z,76.70
2018-05-23T03:42:41.809Z,76.68
2018-05-23T03:43:45.133Z,76.66
2018-05-23T03:44:48.472Z,76.66
2018-05-23T03:45:51.807Z,76.60
2018-05-23T03:46:55.151Z,76.60
2018-05-23T03:47:58.499Z,76.59
2018-05-23T03:49:01.828Z,76.59
2018-05-23T03:50:05.152Z,76.57
2018-05-23T03:51:08.492Z,76.55
2018-05-23T03:52:11.835Z,76.54
2018-05-23T03:53:15.162Z,76.53
2018-05-23T03:54:18.563Z,76.53
2018-05-23T03:55:21.978Z,76.53
2018-05-23T03:56:25.240Z,76.50
2018-05-23T03:57:28.589Z,76.49
2018-05-23T03:58:31.904Z,76.46
2018-05-23T03:59:46.965Z,76.46
2018-05-23T04:01:02.176Z,76.53
2018-05-23T04:02:17.382Z,76.60
2018-05-23T04:03:32.388Z,76.63
2018-05-23T04:04:47.553Z,76.71
2018-05-23T04:06:02.754Z,76.80
2018-05-23T04:07:17.859Z,76.87
2018-05-23T04:08:21.196Z,76.92
2018-05-23T04:09:24.542Z,76.88
2018-05-23T04:10:27.868Z,76.80
2018-05-23T04:11:31.195Z,76.79
2018-05-23T04:12:34.520Z,76.74
2018-05-23T04:13:37.840Z,76.72
2018-05-23T04:14:41.192Z,76.71
2018-05-23T04:15:44.643Z,76.67
2018-05-23T04:16:47.951Z,76.64
2018-05-23T04:17:51.278Z,76.62
2018-05-23T04:18:54.691Z,76.59
2018-05-23T04:19:58.148Z,76.53
2018-05-23T04:21:01.578Z,76.50
2018-05-23T04:22:04.894Z,76.49
2018-05-23T04:23:08.265Z,76.46
2018-05-23T04:24:11.791Z,76.46
2018-05-23T04:25:15.147Z,76.44
2018-05-23T04:26:18.484Z,76.44
2018-05-23T04:27:21.799Z,76.42
2018-05-23T04:28:25.167Z,76.40
2018-05-23T04:29:28.493Z,76.38
2018-05-23T04:30:31.834Z,76.37
2018-05-23T04:31:35.377Z,76.37
2018-05-23T04:32:38.972Z,76.37
2018-05-23T04:33:42.288Z,76.34
2018-05-23T04:34:45.611Z,76.32
2018-05-23T04:35:48.959Z,76.31
2018-05-23T04:36:52.279Z,76.32
2018-05-23T04:37:55.625Z,76.35
2018-05-23T04:38:58.930Z,76.37
2018-05-23T04:40:02.347Z,76.36
2018-05-23T04:41:05.802Z,76.34
2018-05-23T04:42:09.139Z,76.33
2018-05-23T04:43:12.467Z,76.31
2018-05-23T04:44:15.776Z,76.30
2018-05-23T04:45:19.097Z,76.30
2018-05-23T04:46:22.442Z,76.30
2018-05-23T04:47:25.764Z,76.35
2018-05-23T04:48:29.076Z,76.35
2018-05-23T04:49:32.395Z,76.36
2018-05-23T04:50:35.759Z,76.35
2018-05-23T04:51:39.120Z,76.33
2018-05-23T04:52:42.439Z,76.33
2018-05-23T04:53:45.758Z,76.37
2018-05-23T04:54:49.077Z,76.36
2018-05-23T04:55:52.636Z,76.35
2018-05-23T04:56:55.956Z,76.36
2018-05-23T04:57:59.275Z,76.37
2018-05-23T04:59:02.622Z,76.33
2018-05-23T05:00:05.945Z,76.31
2018-05-23T05:01:09.267Z,76.30
2018-05-23T05:02:12.610Z,76.28
2018-05-23T05:03:15.944Z,76.27
2018-05-23T05:04:19.247Z,76.32
2018-05-23T05:05:22.563Z,76.30
2018-05-23T05:06:25.891Z,76.33
2018-05-23T05:07:29.229Z,76.32
2018-05-23T05:08:32.539Z,76.32
2018-05-23T05:09:35.868Z,76.28
2018-05-23T05:10:39.184Z,76.26
2018-05-23T05:11:42.515Z,76.27
2018-05-23T05:12:45.856Z,76.26
2018-05-23T05:13:49.407Z,76.21
2018-05-23T05:14:52.755Z,76.13
2018-05-23T05:15:56.079Z,76.11
2018-05-23T05:16:59.400Z,76.10
2018-05-23T05:18:02.749Z,76.15
2018-05-23T05:19:06.096Z,76.15
2018-05-23T05:20:09.427Z,76.19
2018-05-23T05:21:12.987Z,76.21
2018-05-23T05:22:16.313Z,76.25
2018-05-23T05:23:19.666Z,76.19
2018-05-23T05:24:23.176Z,76.17
2018-05-23T05:25:26.510Z,76.16
2018-05-23T05:26:29.846Z,76.18
2018-05-23T05:27:33.188Z,76.24
2018-05-23T05:28:36.596Z,76.27
2018-05-23T05:29:40.020Z,76.33
2018-05-23T05:30:43.333Z,76.32
2018-05-23T05:31:46.694Z,76.28
2018-05-23T05:32:50.014Z,76.23
2018-05-23T05:33:53.350Z,76.19
2018-05-23T05:34:56.680Z,76.17
2018-05-23T05:36:00.035Z,76.17
2018-05-23T05:37:03.354Z,76.18
2018-05-23T05:38:06.688Z,76.21
2018-05-23T05:39:10.022Z,76.18
2018-05-23T05:40:13.354Z,76.15
2018-05-23T05:41:16.693Z,76.18
2018-05-23T05:42:20.012Z,76.19
2018-05-23T05:43:23.339Z,76.18
2018-05-23T05:44:26.683Z,76.19
2018-05-23T05:45:30.008Z,76.09
2018-05-23T05:46:33.331Z,76.03
2018-05-23T05:47:36.659Z,75.95
2018-05-23T05:48:39.978Z,75.90
2018-05-23T05:49:43.318Z,75.83
2018-05-23T05:50:46.654Z,75.85
2018-05-23T05:51:49.970Z,75.77
2018-05-23T05:52:53.290Z,75.70
2018-05-23T05:53:56.608Z,75.66
2018-05-23T05:54:59.959Z,75.63
2018-05-23T05:56:03.286Z,75.60
2018-05-23T05:57:06.732Z,75.60
2018-05-23T05:58:10.047Z,75.57
2018-05-23T05:59:13.378Z,75.56
2018-05-23T06:00:16.727Z,75.56
2018-05-23T06:01:20.067Z,75.57
2018-05-23T06:02:23.427Z,75.58
2018-05-23T06:03:26.824Z,75.57
2018-05-23T06:04:30.131Z,75.60
2018-05-23T06:05:33.478Z,75.60
2018-05-23T06:06:36.779Z,75.56
2018-05-23T06:07:40.122Z,75.56
2018-05-23T06:08:43.503Z,75.52
2018-05-23T06:09:46.881Z,75.44
2018-05-23T06:10:50.254Z,75.41
2018-05-23T06:11:53.583Z,75.39
2018-05-23T06:12:56.923Z,75.37
2018-05-23T06:14:00.267Z,75.37
2018-05-23T06:15:03.558Z,75.43
2018-05-23T06:16:06.915Z,75.41
2018-05-23T06:17:10.253Z,75.31
2018-05-23T06:18:13.584Z,75.31
2018-05-23T06:19:16.906Z,75.28
2018-05-23T06:20:20.218Z,75.31
2018-05-23T06:21:23.588Z,75.27
2018-05-23T06:22:27.012Z,75.20
2018-05-23T06:23:30.279Z,75.15
2018-05-23T06:24:33.686Z,75.08
2018-05-23T06:25:36.994Z,75.09
2018-05-23T06:26:40.471Z,75.02
2018-05-23T06:27:43.795Z,75.07
2018-05-23T06:28:47.106Z,75.17
2018-05-23T06:29:50.430Z,75.12
2018-05-23T06:30:53.755Z,75.06
2018-05-23T06:31:57.125Z,74.98
2018-05-23T06:33:00.464Z,74.90
2018-05-23T06:34:04.282Z,74.87
2018-05-23T06:35:07.591Z,74.83
2018-05-23T06:36:10.919Z,74.77
2018-05-23T06:37:14.436Z,74.80
2018-05-23T06:38:17.796Z,74.76
2018-05-23T06:39:21.146Z,74.70
2018-05-23T06:40:24.467Z,74.61
2018-05-23T06:41:27.845Z,74.50
2018-05-23T06:42:31.187Z,74.52
2018-05-23T06:43:34.571Z,74.44
2018-05-23T06:44:37.839Z,74.38
2018-05-23T06:45:41.269Z,74.41
2018-05-23T06:46:44.601Z,74.38
2018-05-23T06:47:47.924Z,74.28
2018-05-23T06:48:51.262Z,74.16
2018-05-23T06:49:54.594Z,74.04
2018-05-23T06:50:57.907Z,73.93
2018-05-23T06:52:01.302Z,73.86
2018-05-23T06:53:04.645Z,73.78
2018-05-23T06:54:07.954Z,73.65
2018-05-23T06:55:11.272Z,73.56
2018-05-23T06:56:14.739Z,73.56
2018-05-23T06:57:18.047Z,73.50
2018-05-23T06:58:21.400Z,73.49
2018-05-23T06:59:24.723Z,73.42
2018-05-23T07:00:28.040Z,73.38
2018-05-23T07:01:31.348Z,73.28
2018-05-23T07:02:34.666Z,73.08
2018-05-23T07:03:38.041Z,72.92
2018-05-23T07:04:41.369Z,72.80
2018-05-23T07:05:44.722Z,72.68
2018-05-23T07:06:48.032Z,72.54
2018-05-23T07:07:51.354Z,72.43
2018-05-23T07:08:54.709Z,72.41
2018-05-23T07:09:58.026Z,72.37
2018-05-23T07:11:01.439Z,72.32
2018-05-23T07:12:04.720Z,72.17
2018-05-23T07:13:08.044Z,72.15
2018-05-23T07:14:11.383Z,71.94
2018-05-23T07:15:14.765Z,71.94
2018-05-23T07:16:18.076Z,71.91
2018-05-23T07:17:21.415Z,71.79
2018-05-23T07:18:24.720Z,71.67
2018-05-23T07:19:28.051Z,71.67
2018-05-23T07:20:31.381Z,71.48
2018-05-23T07:21:34.714Z,71.19
2018-05-23T07:22:38.047Z,71.00
2018-05-23T07:23:41.405Z,70.89
2018-05-23T07:24:44.893Z,70.77
2018-05-23T07:25:48.249Z,70.54
2018-05-23T07:26:51.543Z,70.31
2018-05-23T07:27:55.201Z,70.21
2018-05-23T07:28:58.523Z,70.07
2018-05-23T07:30:02.059Z,69.89
2018-05-23T07:31:05.374Z,69.61
2018-05-23T07:32:08.698Z,69.53
2018-05-23T07:33:12.035Z,69.43
2018-05-23T07:34:15.372Z,69.30
2018-05-23T07:35:18.754Z,69.08
2018-05-23T07:36:22.108Z,68.95
2018-05-23T07:37:25.432Z,68.64
2018-05-23T07:38:28.837Z,68.47
2018-05-23T07:39:32.087Z,68.39
2018-05-23T07:40:35.433Z,68.28
2018-05-23T07:41:38.757Z,68.17
2018-05-23T07:42:42.073Z,68.00
2018-05-23T07:43:45.401Z,67.96
2018-05-23T07:44:48.741Z,67.86
2018-05-23T07:45:52.168Z,67.68
2018-05-23T07:46:55.408Z,67.56
2018-05-23T07:47:58.742Z,67.41
2018-05-23T07:49:02.110Z,67.14
2018-05-23T07:50:06.508Z,67.01
2018-05-23T07:51:09.849Z,66.95
2018-05-23T07:52:13.159Z,66.88
2018-05-23T07:53:16.502Z,66.51
2018-05-23T07:54:19.999Z,66.48
2018-05-23T07:55:23.401Z,66.36
2018-05-23T07:56:26.750Z,66.08
2018-05-23T07:57:30.076Z,65.95
2018-05-23T07:58:33.409Z,65.75
2018-05-23T07:59:36.736Z,65.56
2018-05-23T08:00:40.151Z,65.27
2018-05-23T08:01:43.435Z,65.27
2018-05-23T08:02:46.770Z,65.15
2018-05-23T08:03:50.120Z,64.74
2018-05-23T08:04:53.489Z,64.20
2018-05-23T08:05:57.111Z,63.89
2018-05-23T08:07:00.460Z,63.59
2018-05-23T08:08:03.789Z,63.25
2018-05-23T08:09:07.111Z,62.90
2018-05-23T08:10:10.444Z,62.61
2018-05-23T08:11:13.833Z,62.31
2018-05-23T08:12:17.205Z,62.09
2018-05-23T08:13:20.519Z,61.74
2018-05-23T08:14:23.852Z,61.19
2018-05-23T08:15:27.205Z,60.91
2018-05-23T08:16:30.531Z,60.68
2018-05-23T08:17:33.870Z,60.79
2018-05-23T08:18:37.221Z,60.99
2018-05-23T08:19:40.530Z,61.05
2018-05-23T08:20:43.895Z,61.17
2018-05-23T08:21:47.232Z,61.11
2018-05-23T08:22:50.572Z,60.88
2018-05-23T08:23:53.894Z,60.75
2018-05-23T08:24:57.455Z,60.65
2018-05-23T08:26:00.827Z,60.54
2018-05-23T08:27:04.221Z,60.42
2018-05-23T08:28:07.573Z,60.39
2018-05-23T08:29:10.908Z,60.36
2018-05-23T08:30:14.223Z,60.29
2018-05-23T08:31:17.555Z,60.26
2018-05-23T08:32:20.927Z,60.19
2018-05-23T08:33:24.288Z,60.03
2018-05-23T08:34:27.836Z,59.92
2018-05-23T08:35:31.224Z,59.89
2018-05-23T08:36:34.600Z,59.79
2018-05-23T08:37:37.917Z,59.84
2018-05-23T08:38:41.273Z,59.84
2018-05-23T08:39:44.605Z,59.79
2018-05-23T08:40:47.983Z,59.83
2018-05-23T08:41:51.314Z,59.94
2018-05-23T08:42:54.674Z,60.03
2018-05-23T08:43:58.039Z,60.04
2018-05-23T08:45:01.373Z,60.11
2018-05-23T08:46:04.743Z,60.18
2018-05-23T08:47:08.039Z,60.07
2018-05-23T08:48:11.366Z,59.91
2018-05-23T08:49:14.704Z,59.83
2018-05-23T08:50:18.029Z,59.68
2018-05-23T08:51:21.371Z,59.52
2018-05-23T08:52:24.715Z,59.33
2018-05-23T08:53:28.087Z,59.07
2018-05-23T08:54:31.428Z,59.08
2018-05-23T08:55:34.742Z,58.76
2018-05-23T08:56:38.065Z,58.62
2018-05-23T08:57:41.390Z,58.55
2018-05-23T08:58:44.723Z,58.43
2018-05-23T08:59:48.074Z,58.18
2018-05-23T09:00:51.398Z,57.95
2018-05-23T09:01:54.739Z,57.75
2018-05-23T09:02:58.063Z,57.61
2018-05-23T09:04:01.397Z,57.51
2018-05-23T09:05:04.832Z,57.52
2018-05-23T09:06:08.255Z,57.53
2018-05-23T09:07:11.569Z,57.56
2018-05-23T09:08:14.882Z,57.58
2018-05-23T09:09:18.232Z,57.49
2018-05-23T09:10:21.575Z,57.68
2018-05-23T09:11:24.907Z,57.81
2018-05-23T09:12:28.355Z,57.89
2018-05-23T09:13:31.597Z,57.65
2018-05-23T09:14:34.999Z,57.49
2018-05-23T09:15:38.341Z,57.44
2018-05-23T09:16:41.653Z,57.45
2018-05-23T09:17:44.987Z,57.48
2018-05-23T09:18:48.308Z,57.41
2018-05-23T09:19:51.630Z,57.47
2018-05-23T09:20:54.998Z,57.55
2018-05-23T09:21:58.307Z,57.64
2018-05-23T09:23:01.638Z,57.63
2018-05-23T09:24:04.966Z,57.69
2018-05-23T09:25:08.443Z,57.76
2018-05-23T09:26:11.787Z,57.85
2018-05-23T09:27:15.108Z,57.77
2018-05-23T09:28:18.429Z,57.55
2018-05-23T09:29:21.761Z,57.62
2018-05-23T09:30:25.110Z,57.69
2018-05-23T09:31:28.447Z,57.85
2018-05-23T09:32:31.802Z,57.96
2018-05-23T09:33:35.118Z,57.94
2018-05-23T09:34:38.427Z,57.93
2018-05-23T09:35:41.763Z,58.05
2018-05-23T09:36:45.116Z,58.05
2018-05-23T09:37:48.426Z,57.97
2018-05-23T09:38:51.743Z,57.86
2018-05-23T09:39:55.050Z,57.76
2018-05-23T09:40:58.382Z,57.69
2018-05-23T09:42:01.731Z,57.93
2018-05-23T09:43:05.072Z,57.82
2018-05-23T09:44:08.413Z,57.79
2018-05-23T09:45:11.802Z,57.92
2018-05-23T09:46:15.053Z,57.87
2018-05-23T09:47:18.435Z,57.84
2018-05-23T09:48:21.751Z,57.65
2018-05-23T09:49:25.075Z,57.66
2018-05-23T09:50:28.410Z,57.73
2018-05-23T09:51:31.761Z,57.65
2018-05-23T09:52:35.330Z,56.93
2018-05-23T09:53:38.699Z,56.47
2018-05-23T09:54:42.018Z,56.19
2018-05-23T09:55:45.337Z,56.30
2018-05-23T09:56:48.660Z,55.45
2018-05-23T09:57:52.001Z,54.82
2018-05-23T09:58:55.336Z,54.21
2018-05-23T09:59:58.638Z,53.59
2018-05-23T10:01:01.992Z,52.86
2018-05-23T10:02:05.313Z,52.21
2018-05-23T10:03:08.658Z,52.06
2018-05-23T10:04:11.967Z,51.78
2018-05-23T10:05:15.271Z,51.55
2018-05-23T10:06:18.603Z,51.64
2018-05-23T10:07:21.899Z,51.68
2018-05-23T10:08:25.242Z,51.73
2018-05-23T10:09:28.564Z,51.87
2018-05-23T10:10:31.877Z,51.80
2018-05-23T10:11:35.218Z,51.54
2018-05-23T10:12:38.535Z,51.50
2018-05-23T10:13:41.886Z,51.42
2018-05-23T10:14:45.191Z,51.44
2018-05-23T10:15:48.506Z,51.50
2018-05-23T10:16:51.827Z,51.37
2018-05-23T10:17:55.149Z,51.25
2018-05-23T10:18:58.492Z,51.15
2018-05-23T10:20:01.807Z,50.92
2018-05-23T10:21:05.146Z,50.97
2018-05-23T10:22:08.462Z,50.95
2018-05-23T10:23:11.771Z,50.90
2018-05-23T10:24:15.122Z,50.99
2018-05-23T10:25:18.661Z,50.89
2018-05-23T10:26:22.055Z,50.76
2018-05-23T10:27:25.334Z,50.85
2018-05-23T10:28:28.662Z,50.86
2018-05-23T10:29:32.022Z,50.77
2018-05-23T10:30:35.332Z,50.87
2018-05-23T10:31:38.674Z,50.65
2018-05-23T10:32:42.017Z,50.41
2018-05-23T10:33:45.594Z,49.88
2018-05-23T10:34:49.126Z,49.77
2018-05-23T10:35:52.523Z,49.88
2018-05-23T10:36:55.867Z,49.96
2018-05-23T10:37:59.178Z,49.79
2018-05-23T10:39:02.536Z,49.63
2018-05-23T10:40:06.784Z,49.63
2018-05-23T10:41:10.108Z,49.84
2018-05-23T10:42:13.605Z,50.10
2018-05-23T10:43:16.929Z,50.04
2018-05-23T10:44:20.243Z,50.03
2018-05-23T10:45:23.987Z,49.93
2018-05-23T10:46:27.279Z,49.90
2018-05-23T10:47:30.595Z,49.83
2018-05-23T10:48:33.963Z,49.75
2018-05-23T10:49:37.334Z,49.86
2018-05-23T10:50:40.677Z,50.03
2018-05-23T10:51:44.048Z,50.11
2018-05-23T10:52:47.406Z,50.01
2018-05-23T10:53:50.828Z,50.07
2018-05-23T10:54:54.129Z,49.95
2018-05-23T10:55:57.471Z,49.68
2018-05-23T10:57:00.871Z,49.70
2018-05-23T10:58:04.102Z,49.63
2018-05-23T10:59:07.411Z,49.57
2018-05-23T11:00:10.769Z,49.08
2018-05-23T11:01:14.059Z,48.78
2018-05-23T11:02:17.372Z,48.05
2018-05-23T11:03:20.678Z,47.49
2018-05-23T11:04:24.022Z,46.58
2018-05-23T11:05:27.317Z,46.16
2018-05-23T11:06:30.663Z,45.78
2018-05-23T11:07:33.960Z,45.43
2018-05-23T11:08:37.277Z,45.22
2018-05-23T11:09:40.612Z,45.03
2018-05-23T11:10:43.933Z,44.87
2018-05-23T11:11:47.296Z,44.60
2018-05-23T11:12:50.605Z,44.15
2018-05-23T11:13:53.929Z,43.78
2018-05-23T11:14:57.280Z,43.37
2018-05-23T11:16:00.594Z,43.39
2018-05-23T11:17:03.997Z,43.47
2018-05-23T11:18:07.247Z,43.47
2018-05-23T11:19:10.574Z,43.36
2018-05-23T11:20:13.860Z,43.30
2018-05-23T11:21:17.172Z,43.64
2018-05-23T11:22:20.515Z,43.75
2018-05-23T11:24:33.331Z,43.88
2018-05-23T11:25:36.929Z,43.83
2018-05-23T11:26:40.227Z,43.86
2018-05-23T11:27:43.556Z,43.99
2018-05-23T11:28:46.892Z,44.01
2018-05-23T11:29:50.214Z,44.01
2018-05-23T11:30:53.531Z,44.02
2018-05-23T11:31:56.845Z,44.07
2018-05-23T11:33:00.187Z,44.21
2018-05-23T11:34:03.499Z,44.23
2018-05-23T11:35:06.818Z,44.28
2018-05-23T11:36:10.121Z,44.28
2018-05-23T11:37:13.438Z,44.27
2018-05-23T11:38:16.756Z,44.23
2018-05-23T11:39:20.055Z,44.31
2018-05-23T11:40:23.366Z,44.27
2018-05-23T11:41:26.697Z,44.41
2018-05-23T11:42:30.006Z,44.56
2018-05-23T11:43:33.338Z,44.80
2018-05-23T11:44:36.692Z,45.03
2018-05-23T11:45:40.003Z,45.33
2018-05-23T11:46:43.447Z,45.62
2018-05-23T11:47:46.630Z,45.71
2018-05-23T11:48:49.979Z,45.99
2018-05-23T11:49:53.346Z,46.18
2018-05-23T11:50:56.647Z,46.28
2018-05-23T11:51:59.944Z,46.48
2018-05-23T11:53:03.263Z,46.71
2018-05-23T11:54:06.592Z,46.83
2018-05-23T11:55:09.902Z,46.99
2018-05-23T11:56:13.298Z,47.11
2018-05-23T11:57:16.614Z,47.23
2018-05-23T11:58:19.930Z,47.38
2018-05-23T11:59:23.250Z,47.67
2018-05-23T12:00:26.578Z,47.99
2018-05-23T12:01:29.924Z,48.34
2018-05-23T12:02:33.237Z,48.94
2018-05-23T12:03:36.551Z,49.55
2018-05-23T12:04:39.883Z,50.30
2018-05-23T12:05:43.207Z,50.90
2018-05-23T12:06:46.523Z,51.74
2018-05-23T12:07:49.853Z,52.29
2018-05-23T12:08:53.164Z,53.00
2018-05-23T12:09:56.499Z,53.83
2018-05-23T12:10:59.811Z,54.12
2018-05-23T12:12:03.136Z,54.51
2018-05-23T12:13:06.466Z,55.14
2018-05-23T12:14:09.809Z,55.58
2018-05-23T12:15:13.149Z,56.29
2018-05-23T12:16:16.460Z,56.50
2018-05-23T12:17:19.771Z,57.37
2018-05-23T12:18:23.157Z,57.54
2018-05-23T12:19:26.460Z,57.69
2018-05-23T12:20:29.816Z,57.35
2018-05-23T12:21:33.133Z,57.10
2018-05-23T12:22:36.448Z,56.95
2018-05-23T12:23:39.765Z,56.64
2018-05-23T12:24:43.076Z,56.38
2018-05-23T12:25:46.515Z,56.33
2018-05-23T12:26:49.811Z,56.42
2018-05-23T12:27:53.139Z,56.49
2018-05-23T12:28:56.472Z,56.59
2018-05-23T12:29:59.806Z,56.67
2018-05-23T12:31:03.150Z,56.40
2018-05-23T12:32:06.482Z,56.12
2018-05-23T12:33:09.800Z,56.29
2018-05-23T12:34:13.106Z,56.11
2018-05-23T12:35:16.408Z,55.83
2018-05-23T12:36:19.752Z,55.41
2018-05-23T12:37:23.068Z,55.08
2018-05-23T12:38:26.392Z,55.06
2018-05-23T12:39:30.099Z,54.91
2018-05-23T12:40:33.408Z,54.72
2018-05-23T12:41:36.773Z,54.83
2018-05-23T12:42:40.088Z,54.87
2018-05-23T12:43:43.406Z,54.54
2018-05-23T12:44:46.720Z,54.42
2018-05-23T12:45:50.041Z,54.21
2018-05-23T12:46:53.376Z,54.07
2018-05-23T12:47:56.686Z,53.85
2018-05-23T12:49:00.044Z,53.92
2018-05-23T12:50:03.357Z,53.74
2018-05-23T12:51:06.675Z,53.58
2018-05-23T12:52:10.035Z,53.23
2018-05-23T12:53:13.354Z,53.15
2018-05-23T12:54:16.673Z,53.02
2018-05-23T12:55:19.999Z,52.90
2018-05-23T12:56:23.317Z,52.77
2018-05-23T12:57:26.664Z,52.74
2018-05-23T12:58:29.963Z,52.70
2018-05-23T12:59:33.269Z,52.62
2018-05-23T13:00:36.566Z,52.77
2018-05-23T13:01:39.889Z,52.98
2018-05-23T13:02:43.215Z,53.37
2018-05-23T13:03:46.524Z,53.30
2018-05-23T13:04:49.831Z,53.33
2018-05-23T13:05:53.154Z,53.65
2018-05-23T13:06:56.483Z,53.94
2018-05-23T13:07:59.824Z,54.29
2018-05-23T13:09:03.131Z,54.62
2018-05-23T13:10:06.438Z,54.95
2018-05-23T13:11:09.758Z,54.97
2018-05-23T13:12:13.089Z,55.12
2018-05-23T13:13:16.447Z,55.34
2018-05-23T13:14:19.747Z,56.16
2018-05-23T13:15:23.087Z,56.48
2018-05-23T13:16:26.429Z,56.87
2018-05-23T13:17:29.736Z,57.32
2018-05-23T13:18:33.086Z,58.27
2018-05-23T13:19:36.412Z,57.77
2018-05-23T13:20:39.727Z,57.79
2018-05-23T13:21:43.114Z,57.73
2018-05-23T13:22:46.447Z,57.51
2018-05-23T13:23:49.845Z,57.71
2018-05-23T13:24:53.146Z,57.49
2018-05-23T13:25:56.616Z,56.93
2018-05-23T13:26:59.918Z,56.34
2018-05-23T13:28:03.258Z,55.76
2018-05-23T13:29:06.608Z,55.49
2018-05-23T13:30:09.919Z,55.45
2018-05-23T13:31:13.268Z,55.33
2018-05-23T13:32:16.606Z,54.93
2018-05-23T13:33:19.906Z,54.84
2018-05-23T13:34:23.247Z,54.58
2018-05-23T13:35:26.572Z,54.25
2018-05-23T13:36:29.907Z,53.68
2018-05-23T13:37:33.230Z,53.21
2018-05-23T13:38:36.529Z,52.95